createdAt,value
2022-10-11T12:00:04.430Z,46.26
2022-10-11T12:58:30.747Z,43.58
2022-10-11T13:01:19.097Z,38.41
2022-10-11T13:07:33.129Z,41.92
2022-10-11T13:13:35.901Z,47.97
2022-10-11T13:16:16.899Z,44.88
2022-10-11T13:19:24.519Z,49.45
2022-10-11T13:22:38.853Z,47.03
2022-10-11T13:26:03.769Z,43.54
2022-10-11T13:28:58.280Z,45.52
2022-10-11T13:31:48.775Z,47.07
2022-10-11T13:34:31.760Z,47.06
2022-10-11T13:38:04.687Z,46.66
2022-10-11T13:46:57.353Z,42.66
2022-10-11T13:50:13.313Z,48.05
2022-10-11T13:53:04.844Z,42.90
2022-10-11T13:56:40.179Z,46.59
2022-10-11T14:00:13.249Z,44.69
2022-10-11T14:03:07.877Z,45.10
2022-10-11T14:06:05.028Z,43.99
2022-10-11T14:09:09.129Z,45.44
2022-10-11T14:15:40.995Z,44.71
2022-10-11T14:18:42.253Z,46.40
2022-10-11T14:21:36.377Z,45.20
2022-10-11T14:25:15.882Z,40.81
2022-10-11T14:35:29.437Z,42.81
2022-10-11T14:38:16.592Z,48.45
2022-10-11T14:40:54.765Z,43.61
2022-10-11T14:53:20.891Z,48.03
2022-10-11T14:56:40.039Z,45.39
2022-10-11T15:05:34.323Z,50.76
2022-10-11T15:09:00.216Z,47.40
2022-10-11T15:11:47.741Z,47.25
2022-10-11T15:14:46.978Z,46.20
2022-10-11T15:17:31.603Z,48.09
2022-10-11T16:52:56.028Z,49.77
2022-10-11T16:56:10.200Z,50.09
2022-10-11T17:02:09.244Z,50.48
2022-10-11T17:05:29.674Z,50.43
2022-10-11T17:08:33.304Z,50.13
2022-10-11T17:11:25.644Z,50.58
2022-10-11T17:14:17.444Z,50.59
2022-10-11T17:19:51.603Z,50.60
2022-10-11T17:23:20.454Z,50.65
2022-10-11T18:06:12.354Z,53.13
2022-10-11T18:09:01.529Z,52.72
2022-10-11T18:11:34.693Z,53.31
2022-10-11T18:14:15.064Z,53.87
2022-10-11T18:17:13.164Z,54.60
2022-10-11T18:20:06.754Z,54.70
2022-10-11T19:14:52.631Z,56.75
2022-10-11T19:17:47.369Z,56.19
2022-10-11T19:20:58.764Z,56.07
2022-10-11T19:34:25.368Z,55.63
2022-10-11T19:52:02.536Z,55.70
2022-10-11T20:12:57.784Z,54.97
2022-10-11T20:30:15.621Z,56.03
2022-10-11T20:33:31.994Z,56.73
2022-10-11T20:36:23.200Z,57.72
2022-10-11T20:39:10.893Z,56.74
2022-10-11T20:42:06.697Z,57.52
2022-10-11T20:45:13.188Z,58.03
2022-10-11T20:47:52.827Z,57.63
2022-10-11T20:50:29.356Z,56.97
2022-10-11T20:53:29.956Z,56.44
2022-10-11T20:56:13.463Z,56.09
2022-10-11T20:58:47.180Z,55.71
2022-10-11T21:01:46.392Z,55.86
2022-10-11T21:04:20.022Z,55.60
2022-10-11T21:07:16.949Z,55.40
2022-10-11T21:09:57.626Z,55.64
2022-10-11T21:12:52.139Z,55.82
2022-10-11T21:15:30.693Z,56.23
2022-10-11T21:18:27.472Z,56.31
2022-10-11T21:21:53.698Z,56.15
2022-10-11T21:24:50.630Z,56.06
2022-10-11T21:27:55.245Z,56.58
2022-10-11T21:30:44.094Z,56.00
2022-10-11T21:33:29.835Z,57.10
2022-10-11T21:36:22.032Z,56.83
2022-10-11T21:39:41.635Z,56.89
2022-10-11T21:42:49.675Z,56.14
2022-10-11T21:48:52.788Z,55.47
2022-10-11T21:51:35.106Z,55.53
2022-10-11T21:54:43.295Z,55.53
2022-10-11T21:57:43.139Z,55.66
2022-10-11T22:00:52.518Z,56.49
2022-10-11T22:06:31.712Z,56.20
2022-10-11T22:08:58.735Z,56.13
2022-10-11T22:11:30.064Z,56.18
2022-10-11T22:13:58.697Z,56.26
2022-10-11T22:16:25.692Z,56.64
2022-10-11T22:18:55.796Z,56.55
2022-10-11T22:21:23.919Z,56.63
2022-10-11T22:23:52.953Z,56.50
2022-10-11T22:26:23.429Z,56.72
2022-10-11T22:28:53.581Z,56.75
2022-10-11T22:31:22.044Z,56.17
2022-10-11T22:33:53.237Z,56.52
2022-10-11T22:36:28.147Z,56.21
2022-10-11T22:38:55.150Z,56.99
2022-10-11T22:41:22.677Z,57.56
2022-10-11T22:43:51.395Z,57.32
2022-10-11T22:46:21.902Z,57.52
2022-10-11T22:48:48.989Z,57.26
2022-10-11T22:51:16.209Z,57.26
2022-10-11T22:53:43.192Z,57.81
2022-10-11T22:56:11.354Z,57.86
2022-10-11T22:58:38.312Z,58.90
2022-10-11T23:01:12.017Z,59.60
2022-10-11T23:03:42.012Z,59.01
2022-10-11T23:06:17.031Z,59.26
2022-10-11T23:08:44.654Z,58.59
2022-10-11T23:11:12.897Z,59.52
2022-10-11T23:13:40.272Z,57.69
2022-10-11T23:16:11.913Z,58.12
2022-10-11T23:18:44.694Z,57.77
2022-10-11T23:21:11.867Z,57.77
2022-10-11T23:23:40.050Z,58.03
2022-10-11T23:26:10.896Z,59.34
2022-10-11T23:28:37.980Z,58.14
2022-10-11T23:31:10.877Z,58.41
2022-10-11T23:33:38.603Z,58.35
2022-10-11T23:36:19.122Z,58.05
2022-10-11T23:38:54.926Z,59.40
2022-10-11T23:44:07.714Z,59.57
2022-10-11T23:46:34.629Z,59.81
2022-10-11T23:49:01.973Z,58.58
2022-10-11T23:51:28.954Z,60.50
2022-10-11T23:53:55.841Z,60.48
2022-10-11T23:56:25.841Z,60.11
2022-10-11T23:58:54.843Z,60.32
